Time;durP1;ratioP1;P1;durP2;ratioP2;P2;SDS_P1;SDS_P2;PMS_P1;PMS_P2;Temp;Humidity;BMP_temperature;BMP_pressure;BME280_temperature;BME280_humidity;BME280_pressure;Samples;Min_cycle;Max_cycle;Signal;HPM_P1;HPM_P2
2023/04/28 00:02:14;;;;;;;;;;;;;;;21.76;26.89;97968.44;4966163;28;956;-78
2023/04/28 00:04:39;;;;;;;;;;;;;;;21.57;27.00;97963.72;4979667;28;980;-79
2023/04/28 00:07:05;;;;;;;;;;;;;;;21.94;26.44;97965.09;4981216;28;938;-78
2023/04/28 00:09:30;;;;;;;;;;;;;;;21.85;26.79;97962.91;4981075;28;963;-78
2023/04/28 00:11:56;;;;;;;;;;;;;;;22.02;26.41;97971.34;4984791;28;1982;-79
2023/04/28 00:14:21;;;;;;;;;;;;;;;21.69;27.01;97965.00;5003834;28;973;-79
2023/04/28 00:16:47;;;;;;;;;;;;;;;21.36;27.35;97964.28;4989177;28;1286;-79
2023/04/28 00:19:12;;;;;;;;;;;;;;;21.71;26.74;97962.50;4987596;28;951;-79
2023/04/28 00:21:37;;;;;;;;;;;;;;;21.71;26.94;97963.31;5023878;28;1019;-78
2023/04/28 00:24:03;;;;;;;;;;;;;;;21.79;26.46;97963.91;5021402;28;1278;-79
2023/04/28 00:26:29;;;;;;;;;;;;;;;21.63;26.91;97973.25;5005247;28;1114;-78
2023/04/28 00:28:54;;;;;;;;;;;;;;;21.64;26.69;97974.81;5003570;28;883;-79
2023/04/28 00:31:20;;;;;;;;;;;;;;;21.89;26.49;97987.50;5005437;28;1975;-79
2023/04/28 00:33:46;;;;;;;;;;;;;;;21.64;26.75;97977.66;5021388;28;892;-79
2023/04/28 00:36:11;;;;;;;;;;;;;;;21.69;26.55;97987.66;4989723;28;1215;-79
2023/04/28 00:38:37;;;;;;;;;;;;;;;21.66;26.56;97983.69;5021291;28;892;-79
2023/04/28 00:41:03;;;;;;;;;;;;;;;21.72;26.48;97976.25;4990048;28;1148;-79
2023/04/28 00:43:28;;;;;;;;;;;;;;;22.30;25.99;97986.75;4979122;28;958;-79
2023/04/28 00:45:54;;;;;;;;;;;;;;;22.19;25.88;97974.94;4965351;28;1399;-79
2023/04/28 00:48:19;;;;;;;;;;;;;;;21.98;26.39;97982.00;4979505;28;970;-79
2023/04/28 00:50:45;;;;;;;;;;;;;;;22.06;26.02;97984.16;4965464;28;1141;-78
2023/04/28 00:53:11;;;;;;;;;;;;;;;21.74;26.26;97985.06;4979771;28;1979;-79
2023/04/28 00:55:36;;;;;;;;;;;;;;;21.74;26.26;97982.22;4981260;28;1048;-78
2023/04/28 00:58:02;;;;;;;;;;;;;;;21.88;26.21;97985.94;4980322;28;1047;-79
2023/04/28 01:00:28;;;;;;;;;;;;;;;21.71;26.42;97983.16;4980974;28;1095;-79
2023/04/28 01:02:54;;;;;;;;;;;;;;;21.63;26.67;97983.78;4980224;28;1060;-79
2023/04/28 01:05:20;;;;;;;;;;;;;;;22.12;25.76;97981.59;4964330;28;1131;-79
2023/04/28 01:07:46;;;;;;;;;;;;;;;22.11;26.05;97971.50;4964272;28;1068;-79
2023/04/28 01:10:11;;;;;;;;;;;;;;;22.05;25.92;97982.56;4963958;28;1133;-79
2023/04/28 01:12:37;;;;;;;;;;;;;;;21.92;25.96;97978.94;4980928;28;1960;-78
2023/04/28 01:15:03;;;;;;;;;;;;;;;21.72;26.11;97987.56;4983778;28;1292;-79
2023/04/28 01:17:29;;;;;;;;;;;;;;;21.83;26.11;97981.59;5008099;28;1377;-78
2023/04/28 01:19:55;;;;;;;;;;;;;;;21.88;26.33;97977.44;5024605;28;918;-78
2023/04/28 01:22:20;;;;;;;;;;;;;;;22.43;25.31;97986.78;5008772;28;1144;-79
2023/04/28 01:24:46;;;;;;;;;;;;;;;21.97;25.76;97974.75;5007225;28;1337;-78
2023/04/28 01:27:13;;;;;;;;;;;;;;;21.96;25.50;97973.94;5008056;28;1296;-79
2023/04/28 01:29:40;;;;;;;;;;;;;;;21.67;26.23;97979.59;5006432;28;1877;-79
2023/04/28 01:32:06;;;;;;;;;;;;;;;22.02;26.11;97977.00;5008400;28;1964;-78
2023/04/28 01:34:32;;;;;;;;;;;;;;;22.18;25.69;97979.81;4974436;28;1311;-79
2023/04/28 01:36:58;;;;;;;;;;;;;;;22.35;25.39;97978.50;4992070;28;1413;-78
2023/04/28 01:39:23;;;;;;;;;;;;;;;22.04;25.61;97974.53;4991001;28;1555;-78
2023/04/28 01:41:49;;;;;;;;;;;;;;;21.41;26.38;97972.22;5008152;28;1186;-78
2023/04/28 01:44:14;;;;;;;;;;;;;;;21.45;26.54;97968.06;5006795;28;1168;-79
2023/04/28 01:46:40;;;;;;;;;;;;;;;22.03;25.92;97967.28;5007439;28;934;-78
2023/04/28 01:49:05;;;;;;;;;;;;;;;22.49;25.06;97967.97;4991229;28;1259;-80
2023/04/28 01:51:32;;;;;;;;;;;;;;;22.28;25.08;97956.03;4991620;28;1894;-79
2023/04/28 01:53:59;;;;;;;;;;;;;;;21.94;25.65;97964.31;4990376;28;1207;-78
2023/04/28 01:56:25;;;;;;;;;;;;;;;21.83;25.56;97967.44;4991884;28;1333;-79
2023/04/28 01:58:53;;;;;;;;;;;;;;;22.11;25.46;97968.69;4990334;28;1418;-79
2023/04/28 02:01:19;;;;;;;;;;;;;;;22.19;25.28;97975.75;5007705;28;1073;-79
2023/04/28 02:03:44;;;;;;;;;;;;;;;22.27;25.40;97971.44;4989466;28;1143;-79
2023/04/28 02:06:10;;;;;;;;;;;;;;;22.18;25.12;97974.16;5025951;28;940;-78
2023/04/28 02:08:36;;;;;;;;;;;;;;;21.99;25.27;97969.41;4973718;28;1227;-79
2023/04/28 02:11:02;;;;;;;;;;;;;;;21.69;25.87;97982.78;5008165;28;969;-79
2023/04/28 02:13:28;;;;;;;;;;;;;;;21.87;25.79;97970.19;4989400;28;1910;-79
2023/04/28 02:15:54;;;;;;;;;;;;;;;21.75;25.85;97975.31;4992165;28;1232;-80
2023/04/28 02:18:20;;;;;;;;;;;;;;;21.85;25.78;97962.09;5005402;28;1147;-80
2023/04/28 02:20:45;;;;;;;;;;;;;;;21.71;25.83;97971.81;5007522;28;940;-79
2023/04/28 02:23:11;;;;;;;;;;;;;;;21.87;25.85;97970.19;5023508;28;1280;-78
2023/04/28 02:25:36;;;;;;;;;;;;;;;21.96;25.63;97968.25;4987092;28;1011;-78
2023/04/28 02:28:02;;;;;;;;;;;;;;;22.63;24.75;97978.84;4985296;28;1108;-79
2023/04/28 02:30:28;;;;;;;;;;;;;;;22.55;24.60;97980.34;4966760;28;1236;-79
2023/04/28 02:32:54;;;;;;;;;;;;;;;22.15;25.16;97974.25;4983226;28;1911;-79
2023/04/28 02:35:20;;;;;;;;;;;;;;;21.82;25.66;97982.84;4983055;28;1180;-78
2023/04/28 02:37:46;;;;;;;;;;;;;;;21.59;25.78;97981.03;4982784;28;1015;-78
2023/04/28 02:40:11;;;;;;;;;;;;;;;21.87;25.66;97993.63;4949983;28;1125;-79
2023/04/28 02:42:37;;;;;;;;;;;;;;;21.79;25.63;97997.91;4999020;28;1440;-78
2023/04/28 02:45:02;;;;;;;;;;;;;;;21.64;25.92;97991.81;4984870;28;1038;-78
2023/04/28 02:47:28;;;;;;;;;;;;;;;21.73;25.83;98000.47;5002679;28;1641;-80
2023/04/28 02:49:53;;;;;;;;;;;;;;;21.81;25.63;97995.41;5001236;28;975;-79
2023/04/28 02:52:20;;;;;;;;;;;;;;;21.59;25.77;97998.81;5001850;28;1930;-79
2023/04/28 02:54:47;;;;;;;;;;;;;;;21.55;26.06;98009.47;5000774;28;1147;-79
2023/04/28 02:57:14;;;;;;;;;;;;;;;21.59;26.07;98012.19;5016857;28;1327;-78
2023/04/28 02:59:39;;;;;;;;;;;;;;;21.67;25.74;98007.94;5020471;28;1218;-78
2023/04/28 03:02:05;;;;;;;;;;;;;;;21.78;25.75;98011.25;5023242;28;952;-78
2023/04/28 03:04:31;;;;;;;;;;;;;;;21.70;25.59;98018.34;5004824;28;1126;-79
2023/04/28 03:06:56;;;;;;;;;;;;;;;21.86;25.47;98011.84;5005694;28;1139;-79
2023/04/28 03:09:22;;;;;;;;;;;;;;;22.28;25.02;98012.72;5022737;28;863;-79
2023/04/28 03:11:47;;;;;;;;;;;;;;;22.10;24.99;98026.56;5005663;28;1914;-79
2023/04/28 03:14:13;;;;;;;;;;;;;;;21.93;25.33;98020.16;5021034;28;1198;-79
2023/04/28 03:16:39;;;;;;;;;;;;;;;21.54;25.55;98024.03;5005657;28;1289;-79
2023/04/28 03:19:04;;;;;;;;;;;;;;;21.66;25.31;98023.34;5021813;28;891;-79
2023/04/28 03:21:31;;;;;;;;;;;;;;;21.66;25.46;98022.50;5022964;28;1123;-79
2023/04/28 03:23:56;;;;;;;;;;;;;;;22.00;25.04;98031.28;4982781;28;1672;-79
2023/04/28 03:26:23;;;;;;;;;;;;;;;22.25;24.87;98036.28;4984215;28;1457;-79
2023/04/28 03:28:50;;;;;;;;;;;;;;;22.02;25.21;98036.50;4983960;28;1139;-78
2023/04/28 03:31:16;;;;;;;;;;;;;;;22.31;24.57;98039.38;4985071;28;1914;-79
2023/04/28 03:33:44;;;;;;;;;;;;;;;21.73;25.54;98040.13;4999261;28;1138;-78
2023/04/28 03:36:11;;;;;;;;;;;;;;;21.73;25.26;98040.13;4985597;28;1311;-79
2023/04/28 03:38:36;;;;;;;;;;;;;;;21.85;25.31;98042.22;4998053;28;965;-78
2023/04/28 03:41:02;;;;;;;;;;;;;;;21.70;25.55;98052.31;5001419;28;1135;-78
2023/04/28 03:43:59;;;;;;;;;;;;;;;21.63;25.39;98052.53;4941897;29;940;-79
2023/04/28 03:46:34;;;;;;;;;;;;;;;21.54;25.51;98049.53;4926966;29;1162;-79
2023/04/28 03:49:01;;;;;;;;;;;;;;;21.59;25.55;98046.94;4925796;29;970;-78
2023/04/28 03:51:27;;;;;;;;;;;;;;;21.70;25.61;98058.00;4943072;29;1906;-79
2023/04/28 03:53:54;;;;;;;;;;;;;;;21.53;25.90;98062.09;4943130;29;1080;-79
2023/04/28 03:56:19;;;;;;;;;;;;;;;21.59;25.49;98060.31;4945684;29;1241;-79
2023/04/28 03:58:45;;;;;;;;;;;;;;;21.24;26.04;98065.59;4945312;29;1118;-78
2023/04/28 04:01:11;;;;;;;;;;;;;;;21.91;25.16;98072.84;4946245;29;1022;-79
2023/04/28 04:03:36;;;;;;;;;;;;;;;21.99;25.20;98075.03;4943804;29;1383;-79
2023/04/28 04:06:02;;;;;;;;;;;;;;;22.23;24.47;98078.47;4908381;29;1162;-78
2023/04/28 04:08:28;;;;;;;;;;;;;;;21.89;25.08;98075.31;4922413;29;1322;-79
2023/04/28 04:10:54;;;;;;;;;;;;;;;21.57;25.43;98077.75;4924813;29;915;-78
2023/04/28 04:13:21;;;;;;;;;;;;;;;21.37;25.95;98087.56;4922401;29;1981;-79
2023/04/28 04:15:46;;;;;;;;;;;;;;;21.87;25.01;98084.28;4923647;29;1099;-79
2023/04/28 04:18:13;;;;;;;;;;;;;;;22.22;24.62;98093.88;4921978;29;1248;-79
2023/04/28 04:21:08;;;;;;;;;;;;;;;21.79;25.02;98089.31;4886449;29;1007;-78
2023/04/28 04:23:34;;;;;;;;;;;;;;;21.44;25.29;98091.00;4899822;29;1198;-79
2023/04/28 04:26:00;;;;;;;;;;;;;;;21.37;25.55;98087.56;4901949;29;1150;-79
2023/04/28 04:28:25;;;;;;;;;;;;;;;22.09;24.80;98090.97;4849819;29;1059;-79
2023/04/28 04:30:51;;;;;;;;;;;;;;;21.96;25.08;98087.25;4864054;29;1150;-78
2023/04/28 04:33:17;;;;;;;;;;;;;;;22.12;24.43;98088.50;4847170;29;1978;-79
2023/04/28 04:35:42;;;;;;;;;;;;;;;22.01;24.77;98094.41;4864596;29;1154;-79
2023/04/28 04:38:08;;;;;;;;;;;;;;;21.79;25.17;98089.31;4883037;29;1027;-79
2023/04/28 04:40:34;;;;;;;;;;;;;;;21.81;24.88;98086.84;4885084;29;1133;-79
2023/04/28 04:43:00;;;;;;;;;;;;;;;22.48;24.35;98099.63;4900420;29;1147;-79
2023/04/28 04:45:27;;;;;;;;;;;;;;;22.23;24.56;98095.47;4885003;29;1253;-79
2023/04/28 04:47:52;;;;;;;;;;;;;;;22.04;24.73;98093.53;4885038;29;1212;-79
2023/04/28 04:50:18;;;;;;;;;;;;;;;21.75;25.21;98093.47;4902689;29;1072;-79
2023/04/28 04:52:44;;;;;;;;;;;;;;;21.56;25.41;98095.97;4888578;29;1903;-79
2023/04/28 04:55:12;;;;;;;;;;;;;;;21.56;25.57;98103.69;4857380;29;1254;-79
2023/04/28 04:57:40;;;;;;;;;;;;;;;21.66;25.22;98096.97;4858606;29;1103;-79
2023/04/28 05:00:24;;;;;;;;;;;;;;;21.91;24.83;98089.84;4888812;29;1041;-78
2023/04/28 05:02:51;;;;;;;;;;;;;;;21.87;24.95;98089.94;4879554;29;1128;-79
2023/04/28 05:05:17;;;;;;;;;;;;;;;21.92;25.01;98075.25;4926301;29;1201;-79
2023/04/28 05:07:43;;;;;;;;;;;;;;;21.82;24.79;98081.97;4941808;29;1294;-79
2023/04/28 05:10:10;;;;;;;;;;;;;;;21.85;24.94;98093.19;4941832;29;1368;-78
2023/04/28 05:12:36;;;;;;;;;;;;;;;21.82;25.00;98094.09;4926056;29;1996;-79
2023/04/28 05:15:02;;;;;;;;;;;;;;;21.67;24.95;98098.53;4941114;29;1110;-78
2023/04/28 05:17:30;;;;;;;;;;;;;;;21.71;25.10;98099.25;4910731;29;1272;-79
2023/04/28 05:19:55;;;;;;;;;;;;;;;21.77;24.78;98103.13;4925114;29;1387;-78
2023/04/28 05:22:21;;;;;;;;;;;;;;;22.41;24.14;98106.31;4927046;29;1235;-78
2023/04/28 05:24:46;;;;;;;;;;;;;;;22.46;24.09;98104.97;4943876;29;1544;-78
2023/04/28 05:27:12;;;;;;;;;;;;;;;22.08;24.57;98106.38;4945579;29;927;-78
2023/04/28 05:29:37;;;;;;;;;;;;;;;21.58;25.13;98101.19;4952793;28;1669;-78
2023/04/28 05:32:03;;;;;;;;;;;;;;;21.73;24.88;98108.09;4967668;28;1908;-78
2023/04/28 05:34:30;;;;;;;;;;;;;;;21.73;24.90;98112.97;4966947;28;1415;-78
2023/04/28 05:36:56;;;;;;;;;;;;;;;21.69;24.90;98115.88;4967741;28;1274;-78
2023/04/28 05:39:25;;;;;;;;;;;;;;;21.69;24.92;98112.25;4998089;28;1387;-78
2023/04/28 05:41:52;;;;;;;;;;;;;;;21.87;24.74;98100.47;5008354;28;1237;-78
2023/04/28 05:44:18;;;;;;;;;;;;;;;21.93;24.47;98121.38;5023387;28;969;-78
2023/04/28 05:46:44;;;;;;;;;;;;;;;21.77;24.69;98116.50;5008012;28;1315;-79
2023/04/28 05:49:10;;;;;;;;;;;;;;;21.83;24.69;98124.03;5006711;28;1103;-78
2023/04/28 05:51:37;;;;;;;;;;;;;;;21.66;24.82;98118.78;5003498;28;1902;-77
2023/04/28 05:54:03;;;;;;;;;;;;;;;22.18;24.38;98121.53;4985665;28;1311;-78
2023/04/28 05:56:29;;;;;;;;;;;;;;;22.27;24.20;98123.69;4986540;28;1398;-78
2023/04/28 05:58:57;;;;;;;;;;;;;;;22.15;24.52;98128.06;4984769;28;1087;-78
2023/04/28 06:01:23;;;;;;;;;;;;;;;22.15;24.24;98125.25;5001978;28;1131;-78
2023/04/28 06:03:48;;;;;;;;;;;;;;;21.73;24.77;98119.41;5001134;28;1834;-78
2023/04/28 06:06:14;;;;;;;;;;;;;;;21.92;24.20;98125.44;5002872;28;1510;-78
2023/04/28 06:08:40;;;;;;;;;;;;;;;22.30;23.95;98120.78;4977050;28;1482;-78
2023/04/28 06:11:06;;;;;;;;;;;;;;;22.33;23.66;98122.72;4995294;28;1242;-78
2023/04/28 06:13:32;;;;;;;;;;;;;;;22.10;24.24;98120.09;4979601;28;1922;-79
2023/04/28 06:15:57;;;;;;;;;;;;;;;21.95;24.25;98116.03;4956748;28;1243;-78
2023/04/28 06:18:23;;;;;;;;;;;;;;;21.88;24.11;98124.72;4980959;28;1382;-78
2023/04/28 06:20:49;;;;;;;;;;;;;;;21.84;24.49;98125.59;4966589;28;1223;-79
2023/04/28 06:23:14;;;;;;;;;;;;;;;21.69;24.79;98126.41;4994440;28;1314;-79
2023/04/28 06:25:44;;;;;;;;;;;;;;;21.65;24.93;98123.66;4961025;28;1263;-78
2023/04/28 06:28:11;;;;;;;;;;;;;;;21.46;24.89;98124.56;4974140;28;1391;-78
2023/04/28 06:30:36;;;;;;;;;;;;;;;21.66;24.65;98133.78;4986213;28;1425;-78
2023/04/28 06:33:02;;;;;;;;;;;;;;;22.01;24.06;98128.41;4984985;28;1993;-78
2023/04/28 06:35:27;;;;;;;;;;;;;;;22.10;24.07;98137.09;4946915;29;1154;-77
2023/04/28 06:37:53;;;;;;;;;;;;;;;21.89;24.19;98143.31;4944672;29;1116;-78
2023/04/28 06:40:19;;;;;;;;;;;;;;;21.90;24.28;98133.56;4928061;29;1268;-79
2023/04/28 06:42:51;;;;;;;;;;;;;;;21.91;24.27;98132.31;4898100;29;1129;-78
2023/04/28 06:45:22;;;;;;;;;;;;;;;21.71;24.33;98138.91;4943761;29;1258;-78
2023/04/28 06:47:48;;;;;;;;;;;;;;;21.83;24.29;98138.19;4927540;29;1038;-78
2023/04/28 06:50:13;;;;;;;;;;;;;;;22.14;24.05;98142.69;4943370;29;995;-79
2023/04/28 06:52:39;;;;;;;;;;;;;;;22.02;24.19;98125.16;4943400;29;1911;-79
2023/04/28 06:55:05;;;;;;;;;;;;;;;22.05;24.11;98121.41;4942767;29;1283;-78
2023/04/28 06:57:31;;;;;;;;;;;;;;;21.96;23.95;98143.13;4943933;29;990;-77
2023/04/28 06:59:56;;;;;;;;;;;;;;;21.75;24.52;98133.94;4904599;29;940;-78
2023/04/28 07:02:22;;;;;;;;;;;;;;;21.81;24.07;98132.19;4905754;29;1023;-78
2023/04/28 07:04:48;;;;;;;;;;;;;;;22.39;23.71;98130.69;4888743;29;945;-78
2023/04/28 07:07:13;;;;;;;;;;;;;;;22.31;23.77;98132.91;4890150;29;964;-78
2023/04/28 07:09:39;;;;;;;;;;;;;;;22.24;23.66;98141.63;4905084;29;974;-79
2023/04/28 07:12:04;;;;;;;;;;;;;;;22.12;23.70;98128.16;4911899;29;1907;-78
2023/04/28 07:14:30;;;;;;;;;;;;;;;22.03;23.96;98134.44;4942677;29;976;-78
2023/04/28 07:16:55;;;;;;;;;;;;;;;21.79;23.88;98136.69;4957616;29;1238;-79
2023/04/28 07:19:21;;;;;;;;;;;;;;;22.01;23.79;98134.09;4945605;29;1154;-78
2023/04/28 07:21:46;;;;;;;;;;;;;;;22.14;23.63;98134.19;4946793;29;991;-79
2023/04/28 07:24:12;;;;;;;;;;;;;;;22.36;23.22;98124.66;4972454;28;1289;-78
2023/04/28 07:26:37;;;;;;;;;;;;;;;22.06;23.39;98122.22;4982367;28;938;-79
2023/04/28 07:29:03;;;;;;;;;;;;;;;21.76;23.89;98129.88;4948117;28;1295;-79
2023/04/28 07:31:28;;;;;;;;;;;;;;;21.62;24.06;98118.91;4965084;28;1879;-77
2023/04/28 07:33:54;;;;;;;;;;;;;;;21.72;23.85;98146.16;4964125;28;931;-78
2023/04/28 07:36:20;;;;;;;;;;;;;;;22.27;23.28;98146.38;4983251;28;1020;-78
2023/04/28 07:38:45;;;;;;;;;;;;;;;22.28;23.20;98143.13;5000092;28;957;-78
2023/04/28 07:41:11;;;;;;;;;;;;;;;22.19;23.37;98142.97;5002599;28;1076;-78
2023/04/28 07:43:36;;;;;;;;;;;;;;;22.06;23.69;98133.53;5000171;28;2117;-78
2023/04/28 07:46:02;;;;;;;;;;;;;;;21.70;23.95;98131.63;4985353;28;1299;-78
2023/04/28 07:48:27;;;;;;;;;;;;;;;21.81;23.86;98146.34;4982412;28;1788;-78
2023/04/28 07:50:53;;;;;;;;;;;;;;;21.58;23.99;98123.84;4985330;28;951;-78
2023/04/28 07:53:18;;;;;;;;;;;;;;;21.91;23.56;98135.16;4999322;28;1979;-78
2023/04/28 07:55:45;;;;;;;;;;;;;;;22.03;23.21;98117.44;4961972;29;1173;-78
2023/04/28 07:58:10;;;;;;;;;;;;;;;22.39;23.00;98133.53;4979916;28;1199;-78
2023/04/28 08:00:36;;;;;;;;;;;;;;;22.10;23.14;98134.25;4965132;28;940;-78
2023/04/28 08:03:03;;;;;;;;;;;;;;;21.74;23.55;98129.50;4963866;28;1010;-78
2023/04/28 08:05:29;;;;;;;;;;;;;;;21.78;23.54;98116.06;4980629;28;1030;-78
2023/04/28 08:07:54;;;;;;;;;;;;;;;21.62;23.61;98133.06;4964155;28;1248;-78
2023/04/28 08:10:20;;;;;;;;;;;;;;;21.85;23.60;98132.84;4964198;28;1435;-78
2023/04/28 08:12:45;;;;;;;;;;;;;;;22.36;22.99;98127.50;4945218;29;1956;-78
2023/04/28 08:15:11;;;;;;;;;;;;;;;22.26;23.00;98124.94;4944547;29;1073;-78
2023/04/28 08:17:36;;;;;;;;;;;;;;;22.03;22.93;98117.44;4961528;29;978;-79
2023/04/28 08:20:02;;;;;;;;;;;;;;;21.98;23.14;98112.31;4960173;29;1009;-78
2023/04/28 08:22:28;;;;;;;;;;;;;;;21.91;23.12;98107.63;4945329;29;930;-78
2023/04/28 08:24:53;;;;;;;;;;;;;;;22.16;22.82;98115.50;4943721;29;1091;-78
2023/04/28 08:27:19;;;;;;;;;;;;;;;22.26;22.76;98127.78;4960376;28;910;-79
2023/04/28 08:29:44;;;;;;;;;;;;;;;22.36;22.70;98110.47;4980884;28;1039;-78
2023/04/28 08:32:10;;;;;;;;;;;;;;;22.08;22.96;98122.56;4984205;28;1963;-78
2023/04/28 08:34:36;;;;;;;;;;;;;;;21.91;23.18;98112.50;4998479;28;1266;-77
2023/04/28 08:37:01;;;;;;;;;;;;;;;21.79;23.43;98109.16;5000537;28;1510;-78
2023/04/28 08:39:27;;;;;;;;;;;;;;;21.77;23.34;98110.84;4982386;28;964;-78
2023/04/28 08:41:52;;;;;;;;;;;;;;;21.85;23.27;98115.88;5000364;28;935;-78
2023/04/28 08:44:18;;;;;;;;;;;;;;;22.12;22.87;98111.16;5015238;28;962;-78
2023/04/28 08:46:44;;;;;;;;;;;;;;;22.47;22.09;98109.38;5021167;28;927;-78
2023/04/28 08:49:16;;;;;;;;;;;;;;;22.30;22.60;98103.78;5019661;28;955;-78
2023/04/28 08:51:56;;;;;;;;;;;;;;;22.13;22.71;98099.41;5004615;28;1906;-78
2023/04/28 08:54:21;;;;;;;;;;;;;;;22.05;22.55;98106.47;5003579;28;946;-79
2023/04/28 08:56:47;;;;;;;;;;;;;;;21.56;23.58;98106.53;5021293;28;1006;-79
2023/04/28 08:59:12;;;;;;;;;;;;;;;22.00;22.76;98093.63;5019671;28;951;-78
2023/04/28 09:01:38;;;;;;;;;;;;;;;22.60;22.14;98094.00;5021183;28;940;-78
2023/04/28 09:04:04;;;;;;;;;;;;;;;22.46;22.16;98091.59;5019141;28;939;-78
2023/04/28 09:06:36;;;;;;;;;;;;;;;22.14;22.51;98098.16;5021489;28;894;-79
2023/04/28 09:09:21;;;;;;;;;;;;;;;22.01;22.60;98083.09;5019304;28;1025;-78
2023/04/28 09:11:50;;;;;;;;;;;;;;;21.76;23.01;98089.41;5020316;28;1914;-78
2023/04/28 09:14:16;;;;;;;;;;;;;;;21.67;23.05;98092.88;5019490;28;928;-78
2023/04/28 09:16:41;;;;;;;;;;;;;;;21.90;22.80;98088.25;4983495;28;1549;-78
2023/04/28 09:19:07;;;;;;;;;;;;;;;22.16;22.52;98083.53;4982362;28;898;-78
2023/04/28 09:21:32;;;;;;;;;;;;;;;22.32;22.48;98087.09;4998757;28;1220;-78
2023/04/28 09:23:58;;;;;;;;;;;;;;;22.21;22.35;98095.13;4998114;28;1279;-78
2023/04/28 09:26:23;;;;;;;;;;;;;;;21.87;23.01;98083.50;4983676;28;1263;-78
2023/04/28 09:28:49;;;;;;;;;;;;;;;21.92;22.53;98080.13;4981155;28;1342;-78
2023/04/28 09:31:21;;;;;;;;;;;;;;;22.03;22.86;98077.78;4999660;28;1266;-78
2023/04/28 09:33:57;;;;;;;;;;;;;;;22.26;22.43;98088.91;4959111;29;1351;-79
2023/04/28 09:36:28;;;;;;;;;;;;;;;22.87;21.52;98082.25;4961026;28;920;-78
2023/04/28 09:38:56;;;;;;;;;;;;;;;22.24;22.41;98074.38;4963628;29;976;-78
2023/04/28 09:41:21;;;;;;;;;;;;;;;21.57;22.46;98009.00;4948000;29;1082;-78
2023/04/28 09:43:47;;;;;;;;;;;;;;;21.79;22.92;98083.66;4963135;29;878;-78
2023/04/28 09:46:12;;;;;;;;;;;;;;;21.67;22.79;98092.88;4963908;29;978;-79
2023/04/28 09:48:38;;;;;;;;;;;;;;;21.50;23.44;98077.94;4962327;29;967;-78
2023/04/28 09:51:04;;;;;;;;;;;;;;;21.78;22.88;98079.22;4949156;29;998;-78
2023/04/28 09:53:30;;;;;;;;;;;;;;;22.04;22.36;98073.69;4945900;29;1899;-79
2023/04/28 09:55:57;;;;;;;;;;;;;;;22.33;22.31;98085.88;4932045;29;1562;-78
2023/04/28 09:58:23;;;;;;;;;;;;;;;22.23;22.42;98066.34;4946467;29;1120;-78
2023/04/28 10:00:52;;;;;;;;;;;;;;;22.04;22.29;98048.19;4956009;29;1220;-78
2023/04/28 10:03:19;;;;;;;;;;;;;;;21.93;22.57;98073.19;4915545;29;1245;-79
2023/04/28 10:05:44;;;;;;;;;;;;;;;21.70;22.66;98058.00;4905417;29;1343;-78
2023/04/28 10:08:10;;;;;;;;;;;;;;;21.71;22.80;98070.94;4907650;29;1256;-78
2023/04/28 10:10:36;;;;;;;;;;;;;;;22.65;21.64;98063.50;4925164;29;1121;-79
2023/04/28 10:13:02;;;;;;;;;;;;;;;22.29;21.82;98056.84;4923683;29;1906;-79
2023/04/28 10:15:27;;;;;;;;;;;;;;;22.14;22.20;98052.81;4907878;29;1564;-79
2023/04/28 10:17:53;;;;;;;;;;;;;;;21.82;22.43;98065.78;4924321;29;1410;-78
2023/04/28 10:20:20;;;;;;;;;;;;;;;21.72;22.64;98064.03;4924080;29;1292;-79
2023/04/28 10:22:45;;;;;;;;;;;;;;;21.53;23.09;98060.06;4908649;29;1541;-79
2023/04/28 10:25:11;;;;;;;;;;;;;;;22.29;22.23;98081.56;4942192;29;1244;-78
2023/04/28 10:27:37;;;;;;;;;;;;;;;22.33;21.75;98068.09;4924781;29;1275;-78
2023/04/28 10:30:12;;;;;;;;;;;;;;;22.09;22.12;98073.16;4908435;29;1212;-78
2023/04/28 10:32:38;;;;;;;;;;;;;;;22.05;22.49;98066.78;4871983;29;2004;-79
2023/04/28 10:35:22;;;;;;;;;;;;;;;21.93;22.44;98059.03;4885791;29;922;-79
2023/04/28 10:38:09;;;;;;;;;;;;;;;21.87;22.44;98060.81;4959036;29;932;-79
2023/04/28 10:40:35;;;;;;;;;;;;;;;22.15;22.11;98054.41;4947127;29;962;-78
2023/04/28 10:43:01;;;;;;;;;;;;;;;22.17;22.13;98074.56;4945733;29;920;-79
2023/04/28 10:45:45;;;;;;;;;;;;;;;22.11;21.98;98062.19;4931088;29;986;-79
2023/04/28 10:48:11;;;;;;;;;;;;;;;21.93;22.22;98059.03;4961608;28;959;-79
2023/04/28 10:50:36;;;;;;;;;;;;;;;21.87;22.37;98055.16;4963538;29;874;-79
2023/04/28 10:53:03;;;;;;;;;;;;;;;21.95;22.13;98067.88;4945721;29;1888;-79
2023/04/28 10:55:38;;;;;;;;;;;;;;;22.00;22.37;98053.97;4946688;29;982;-79
2023/04/28 10:58:19;;;;;;;;;;;;;;;22.34;21.74;98064.78;4945963;29;969;-79
2023/04/28 11:00:46;;;;;;;;;;;;;;;22.25;22.03;98061.81;4963262;28;1048;-79
2023/04/28 11:03:30;;;;;;;;;;;;;;;21.84;22.54;98054.78;4961525;29;932;-79
2023/04/28 11:06:14;;;;;;;;;;;;;;;21.67;22.79;98063.78;4981748;28;1042;-79
2023/04/28 11:08:40;;;;;;;;;;;;;;;21.89;22.28;98064.00;4981689;28;1226;-79
2023/04/28 11:11:15;;;;;;;;;;;;;;;21.74;22.51;98047.38;4984419;28;1363;-78
2023/04/28 11:13:41;;;;;;;;;;;;;;;22.14;22.01;98066.97;4966085;28;1911;-79
2023/04/28 11:16:06;;;;;;;;;;;;;;;22.07;22.09;98058.63;4967310;28;859;-79
2023/04/28 11:18:41;;;;;;;;;;;;;;;22.29;21.75;98071.00;4980519;28;920;-79
2023/04/28 11:21:06;;;;;;;;;;;;;;;21.83;22.27;98070.19;4983356;28;941;-78
2023/04/28 11:23:32;;;;;;;;;;;;;;;21.39;23.21;98068.09;4983686;28;1158;-78
2023/04/28 11:25:57;;;;;;;;;;;;;;;21.59;22.94;98058.28;4983119;28;871;-79
2023/04/28 11:28:23;;;;;;;;;;;;;;;22.10;22.17;98054.91;4980808;28;890;-78
2023/04/28 11:30:49;;;;;;;;;;;;;;;22.45;21.54;98055.19;4999671;28;935;-78
2023/04/28 11:33:14;;;;;;;;;;;;;;;22.55;21.58;98062.56;4997543;28;1977;-78
2023/04/28 11:35:40;;;;;;;;;;;;;;;22.04;22.30;98063.16;4983406;28;1123;-79
2023/04/28 11:38:06;;;;;;;;;;;;;;;21.77;22.43;98074.81;4997887;28;957;-78
2023/04/28 11:40:32;;;;;;;;;;;;;;;21.76;22.62;98072.41;4968153;28;1413;-79
2023/04/28 11:42:58;;;;;;;;;;;;;;;21.72;22.46;98060.41;5000192;28;1194;-79
2023/04/28 11:45:26;;;;;;;;;;;;;;;22.18;21.86;98064.84;4984598;28;919;-79
2023/04/28 11:47:51;;;;;;;;;;;;;;;22.39;21.73;98062.66;4983859;28;990;-78
2023/04/28 11:50:34;;;;;;;;;;;;;;;22.37;21.80;98071.59;4999819;28;1639;-79
2023/04/28 11:52:59;;;;;;;;;;;;;;;21.95;22.17;98065.03;4983059;28;1910;-79
2023/04/28 11:55:27;;;;;;;;;;;;;;;21.69;22.38;98062.06;4984123;28;946;-79
2023/04/28 11:58:11;;;;;;;;;;;;;;;21.58;22.80;98061.56;4984152;28;991;-79
2023/04/28 12:00:37;;;;;;;;;;;;;;;21.57;22.54;98066.44;4999858;28;960;-79
2023/04/28 12:03:08;;;;;;;;;;;;;;;21.59;22.74;98060.31;4999307;28;938;-78
2023/04/28 12:05:36;;;;;;;;;;;;;;;21.75;22.34;98065.94;4961988;29;1032;-78
2023/04/28 12:08:01;;;;;;;;;;;;;;;21.74;22.43;98067.19;4945279;29;935;-79
2023/04/28 12:10:27;;;;;;;;;;;;;;;22.04;22.06;98065.19;4945153;29;978;-79
2023/04/28 12:12:52;;;;;;;;;;;;;;;22.33;21.92;98066.03;4960933;29;1962;-79
2023/04/28 12:15:18;;;;;;;;;;;;;;;22.38;21.61;98063.88;4961487;29;998;-79
2023/04/28 12:17:44;;;;;;;;;;;;;;;22.45;21.45;98052.34;4960744;29;942;-79
2023/04/28 12:20:11;;;;;;;;;;;;;;;21.94;22.06;98046.47;4960783;29;944;-79
2023/04/28 12:22:49;;;;;;;;;;;;;;;21.90;22.37;98048.59;4945721;29;1136;-79
2023/04/28 12:25:16;;;;;;;;;;;;;;;21.59;22.83;98037.66;4944294;29;1081;-79
2023/04/28 12:27:57;;;;;;;;;;;;;;;21.74;22.76;98038.88;4945309;29;949;-79
2023/04/28 12:30:22;;;;;;;;;;;;;;;22.25;21.87;98049.66;4960738;29;933;-78
2023/04/28 12:32:48;;;;;;;;;;;;;;;22.34;21.93;98039.28;4961488;29;1892;-79
2023/04/28 12:35:13;;;;;;;;;;;;;;;22.11;22.28;98019.69;4944265;29;1193;-77
2023/04/28 12:37:40;;;;;;;;;;;;;;;22.30;21.91;98044.25;4982131;28;1038;-78
2023/04/28 12:40:06;;;;;;;;;;;;;;;22.03;21.89;98029.63;4981434;28;1091;-79
2023/04/28 12:42:31;;;;;;;;;;;;;;;21.97;22.30;98025.75;5000378;28;977;-78
2023/04/28 12:44:57;;;;;;;;;;;;;;;21.90;22.37;98025.91;4982452;28;1237;-79
2023/04/28 12:47:23;;;;;;;;;;;;;;;21.63;22.81;98041.19;5000000;28;1122;-79
2023/04/28 12:49:51;;;;;;;;;;;;;;;21.58;22.74;98039.69;4982862;28;1006;-79
2023/04/28 12:52:17;;;;;;;;;;;;;;;22.13;22.13;98042.72;4984812;28;1988;-79
2023/04/28 12:54:45;;;;;;;;;;;;;;;22.48;21.42;98034.41;4982901;28;917;-79
2023/04/28 12:57:12;;;;;;;;;;;;;;;22.21;21.97;98037.63;4984578;28;1210;-79
2023/04/28 12:59:38;;;;;;;;;;;;;;;22.23;21.96;98044.47;4998921;28;962;-78